sensor_id;sensor_type;location;lat;lon;timestamp;P1;durP1;ratioP1;P2;durP2;ratioP2
12812;SDS011;6471;50.932;6.934;2022-07-03T00:13:47;2.20;;;1.50;;
12812;SDS011;6471;50.932;6.934;2022-07-03T00:16:41;2.20;;;1.60;;
12812;SDS011;6471;50.932;6.934;2022-07-03T01:49:12;3.07;;;2.30;;
12812;SDS011;6471;50.932;6.934;2022-07-03T02:50:02;2.60;;;1.53;;
12812;SDS011;6471;50.932;6.934;2022-07-03T02:55:13;1.73;;;1.40;;
12812;SDS011;6471;50.932;6.934;2022-07-03T02:57:43;2.27;;;1.43;;
12812;SDS011;6471;50.932;6.934;2022-07-03T03:00:11;1.70;;;1.30;;
12812;SDS011;6471;50.932;6.934;2022-07-03T03:02:51;2.33;;;1.50;;
12812;SDS011;6471;50.932;6.934;2022-07-03T03:10:14;1.90;;;1.60;;
12812;SDS011;6471;50.932;6.934;2022-07-03T03:12:44;2.13;;;1.57;;
12812;SDS011;6471;50.932;6.934;2022-07-03T03:15:12;2.30;;;1.60;;
12812;SDS011;6471;50.932;6.934;2022-07-03T03:17:42;2.23;;;1.70;;
12812;SDS011;6471;50.932;6.934;2022-07-03T03:20:12;2.57;;;1.50;;
12812;SDS011;6471;50.932;6.934;2022-07-03T03:25:15;1.57;;;1.30;;
12812;SDS011;6471;50.932;6.934;2022-07-03T03:27:41;2.10;;;1.50;;
12812;SDS011;6471;50.932;6.934;2022-07-03T03:30:08;1.70;;;1.33;;
12812;SDS011;6471;50.932;6.934;2022-07-03T03:32:34;2.80;;;1.63;;
12812;SDS011;6471;50.932;6.934;2022-07-03T03:35:01;1.90;;;1.40;;
12812;SDS011;6471;50.932;6.934;2022-07-03T03:37:27;1.77;;;1.40;;
12812;SDS011;6471;50.932;6.934;2022-07-03T03:39:54;2.03;;;1.47;;
12812;SDS011;6471;50.932;6.934;2022-07-03T03:42:20;1.80;;;1.50;;
12812;SDS011;6471;50.932;6.934;2022-07-03T03:44:46;2.10;;;1.50;;
12812;SDS011;6471;50.932;6.934;2022-07-03T03:47:12;2.93;;;1.37;;
12812;SDS011;6471;50.932;6.934;2022-07-03T03:49:38;1.50;;;1.40;;
12812;SDS011;6471;50.932;6.934;2022-07-03T03:52:04;2.37;;;1.73;;
12812;SDS011;6471;50.932;6.934;2022-07-03T03:54:30;2.60;;;1.80;;
12812;SDS011;6471;50.932;6.934;2022-07-03T03:56:56;2.10;;;1.80;;
12812;SDS011;6471;50.932;6.934;2022-07-03T03:59:24;2.47;;;2.00;;
12812;SDS011;6471;50.932;6.934;2022-07-03T04:01:50;2.23;;;1.77;;
12812;SDS011;6471;50.932;6.934;2022-07-03T04:04:16;1.70;;;1.60;;
12812;SDS011;6471;50.932;6.934;2022-07-03T04:06:44;2.47;;;1.60;;
12812;SDS011;6471;50.932;6.934;2022-07-03T04:09:10;1.90;;;1.60;;
12812;SDS011;6471;50.932;6.934;2022-07-03T04:11:36;2.10;;;1.50;;
12812;SDS011;6471;50.932;6.934;2022-07-03T04:14:02;2.07;;;1.70;;
12812;SDS011;6471;50.932;6.934;2022-07-03T04:16:28;2.30;;;1.60;;
12812;SDS011;6471;50.932;6.934;2022-07-03T04:18:54;1.73;;;1.50;;
12812;SDS011;6471;50.932;6.934;2022-07-03T04:21:20;1.70;;;1.40;;
12812;SDS011;6471;50.932;6.934;2022-07-03T04:23:46;2.07;;;1.60;;
12812;SDS011;6471;50.932;6.934;2022-07-03T04:26:12;2.03;;;1.50;;
12812;SDS011;6471;50.932;6.934;2022-07-03T04:28:39;2.07;;;1.47;;
12812;SDS011;6471;50.932;6.934;2022-07-03T04:31:06;2.07;;;1.50;;
12812;SDS011;6471;50.932;6.934;2022-07-03T04:33:32;2.57;;;1.60;;
12812;SDS011;6471;50.932;6.934;2022-07-03T04:35:58;2.27;;;1.40;;
12812;SDS011;6471;50.932;6.934;2022-07-03T04:38:24;2.30;;;1.57;;
12812;SDS011;6471;50.932;6.934;2022-07-03T04:40:50;1.80;;;1.50;;
12812;SDS011;6471;50.932;6.934;2022-07-03T04:43:16;2.23;;;1.50;;
12812;SDS011;6471;50.932;6.934;2022-07-03T04:45:43;2.40;;;1.40;;
12812;SDS011;6471;50.932;6.934;2022-07-03T04:48:09;1.87;;;1.50;;
12812;SDS011;6471;50.932;6.934;2022-07-03T04:50:35;1.73;;;1.40;;
12812;SDS011;6471;50.932;6.934;2022-07-03T04:53:01;2.20;;;1.70;;
12812;SDS011;6471;50.932;6.934;2022-07-03T04:55:27;2.07;;;1.70;;
12812;SDS011;6471;50.932;6.934;2022-07-03T04:57:53;2.17;;;1.70;;
12812;SDS011;6471;50.932;6.934;2022-07-03T05:00:19;2.67;;;1.90;;
12812;SDS011;6471;50.932;6.934;2022-07-03T05:02:45;2.23;;;1.70;;
12812;SDS011;6471;50.932;6.934;2022-07-03T05:05:11;1.60;;;1.50;;
12812;SDS011;6471;50.932;6.934;2022-07-03T05:07:37;2.57;;;1.60;;
12812;SDS011;6471;50.932;6.934;2022-07-03T05:10:04;1.63;;;1.50;;
12812;SDS011;6471;50.932;6.934;2022-07-03T05:12:30;2.50;;;1.60;;
12812;SDS011;6471;50.932;6.934;2022-07-03T05:14:56;2.23;;;2.00;;
12812;SDS011;6471;50.932;6.934;2022-07-03T05:17:22;3.00;;;2.00;;
12812;SDS011;6471;50.932;6.934;2022-07-03T05:19:48;2.07;;;1.57;;
12812;SDS011;6471;50.932;6.934;2022-07-03T05:22:37;2.13;;;1.90;;
12812;SDS011;6471;50.932;6.934;2022-07-03T05:25:04;3.13;;;2.00;;
12812;SDS011;6471;50.932;6.934;2022-07-03T05:27:30;3.97;;;2.00;;
12812;SDS011;6471;50.932;6.934;2022-07-03T05:29:56;1.73;;;1.50;;
12812;SDS011;6471;50.932;6.934;2022-07-03T05:32:22;2.70;;;1.83;;
12812;SDS011;6471;50.932;6.934;2022-07-03T05:34:48;4.73;;;2.10;;
12812;SDS011;6471;50.932;6.934;2022-07-03T05:37:14;3.80;;;2.10;;
12812;SDS011;6471;50.932;6.934;2022-07-03T05:39:40;2.33;;;1.67;;
12812;SDS011;6471;50.932;6.934;2022-07-03T05:42:06;2.87;;;1.90;;
12812;SDS011;6471;50.932;6.934;2022-07-03T05:44:33;2.67;;;1.60;;
12812;SDS011;6471;50.932;6.934;2022-07-03T05:46:59;3.73;;;2.07;;
12812;SDS011;6471;50.932;6.934;2022-07-03T05:49:25;2.77;;;1.60;;
12812;SDS011;6471;50.932;6.934;2022-07-03T05:51:51;3.03;;;1.90;;
12812;SDS011;6471;50.932;6.934;2022-07-03T05:54:17;2.67;;;1.57;;
12812;SDS011;6471;50.932;6.934;2022-07-03T05:56:43;2.40;;;1.60;;
12812;SDS011;6471;50.932;6.934;2022-07-03T05:59:09;2.07;;;1.67;;
12812;SDS011;6471;50.932;6.934;2022-07-03T06:01:35;2.50;;;1.63;;
12812;SDS011;6471;50.932;6.934;2022-07-03T06:04:01;1.63;;;1.50;;
12812;SDS011;6471;50.932;6.934;2022-07-03T06:06:27;2.40;;;1.40;;
12812;SDS011;6471;50.932;6.934;2022-07-03T06:08:53;2.10;;;1.60;;
12812;SDS011;6471;50.932;6.934;2022-07-03T06:11:19;2.13;;;1.53;;
12812;SDS011;6471;50.932;6.934;2022-07-03T06:13:46;1.90;;;1.50;;
12812;SDS011;6471;50.932;6.934;2022-07-03T06:16:12;3.47;;;1.80;;
12812;SDS011;6471;50.932;6.934;2022-07-03T06:18:39;3.40;;;2.03;;
12812;SDS011;6471;50.932;6.934;2022-07-03T06:21:05;3.97;;;1.90;;
12812;SDS011;6471;50.932;6.934;2022-07-03T06:23:31;6.00;;;2.20;;
12812;SDS011;6471;50.932;6.934;2022-07-03T06:25:57;4.40;;;2.10;;
12812;SDS011;6471;50.932;6.934;2022-07-03T06:28:24;2.63;;;1.87;;
12812;SDS011;6471;50.932;6.934;2022-07-03T06:30:50;3.67;;;1.90;;
12812;SDS011;6471;50.932;6.934;2022-07-03T06:33:16;4.27;;;1.80;;
12812;SDS011;6471;50.932;6.934;2022-07-03T06:35:42;3.17;;;1.80;;
12812;SDS011;6471;50.932;6.934;2022-07-03T06:38:09;2.53;;;1.63;;
12812;SDS011;6471;50.932;6.934;2022-07-03T06:40:35;2.53;;;1.90;;
12812;SDS011;6471;50.932;6.934;2022-07-03T06:43:01;2.50;;;1.60;;
12812;SDS011;6471;50.932;6.934;2022-07-03T06:45:27;4.47;;;1.90;;
12812;SDS011;6471;50.932;6.934;2022-07-03T06:47:53;3.53;;;1.83;;
12812;SDS011;6471;50.932;6.934;2022-07-03T06:50:19;2.57;;;1.93;;
12812;SDS011;6471;50.932;6.934;2022-07-03T06:52:45;2.70;;;1.90;;
12812;SDS011;6471;50.932;6.934;2022-07-03T06:55:12;3.37;;;2.10;;
12812;SDS011;6471;50.932;6.934;2022-07-03T06:57:38;5.10;;;1.90;;
12812;SDS011;6471;50.932;6.934;2022-07-03T07:00:04;5.00;;;2.10;;
12812;SDS011;6471;50.932;6.934;2022-07-03T07:02:30;4.87;;;2.33;;
12812;SDS011;6471;50.932;6.934;2022-07-03T07:04:57;4.60;;;2.20;;
12812;SDS011;6471;50.932;6.934;2022-07-03T07:07:23;4.50;;;2.30;;
12812;SDS011;6471;50.932;6.934;2022-07-03T07:09:49;6.87;;;2.27;;
12812;SDS011;6471;50.932;6.934;2022-07-03T07:12:15;3.40;;;2.10;;
12812;SDS011;6471;50.932;6.934;2022-07-03T07:14:41;3.73;;;2.40;;
12812;SDS011;6471;50.932;6.934;2022-07-03T07:17:07;3.10;;;2.30;;
12812;SDS011;6471;50.932;6.934;2022-07-03T07:19:33;4.03;;;2.33;;
12812;SDS011;6471;50.932;6.934;2022-07-03T07:21:59;2.80;;;2.37;;
12812;SDS011;6471;50.932;6.934;2022-07-03T07:24:26;3.70;;;2.20;;
12812;SDS011;6471;50.932;6.934;2022-07-03T07:26:53;4.03;;;2.27;;
12812;SDS011;6471;50.932;6.934;2022-07-03T07:29:19;3.63;;;2.70;;
12812;SDS011;6471;50.932;6.934;2022-07-03T07:31:45;3.57;;;2.10;;
12812;SDS011;6471;50.932;6.934;2022-07-03T07:34:11;5.27;;;2.10;;
12812;SDS011;6471;50.932;6.934;2022-07-03T07:36:38;5.27;;;2.70;;
12812;SDS011;6471;50.932;6.934;2022-07-03T07:39:04;4.63;;;2.70;;
12812;SDS011;6471;50.932;6.934;2022-07-03T07:41:30;3.17;;;2.47;;
12812;SDS011;6471;50.932;6.934;2022-07-03T07:43:56;3.37;;;2.50;;
12812;SDS011;6471;50.932;6.934;2022-07-03T07:46:23;4.67;;;1.90;;
12812;SDS011;6471;50.932;6.934;2022-07-03T07:48:49;2.97;;;2.10;;
12812;SDS011;6471;50.932;6.934;2022-07-03T07:51:15;3.60;;;2.40;;
12812;SDS011;6471;50.932;6.934;2022-07-03T07:53:41;3.43;;;2.10;;
12812;SDS011;6471;50.932;6.934;2022-07-03T07:56:07;2.97;;;1.93;;
12812;SDS011;6471;50.932;6.934;2022-07-03T07:58:33;3.53;;;2.53;;
12812;SDS011;6471;50.932;6.934;2022-07-03T08:00:59;2.30;;;2.10;;
12812;SDS011;6471;50.932;6.934;2022-07-03T08:03:44;4.27;;;2.40;;
12812;SDS011;6471;50.932;6.934;2022-07-03T08:06:28;5.20;;;2.50;;
12812;SDS011;6471;50.932;6.934;2022-07-03T08:08:55;2.73;;;2.07;;
12812;SDS011;6471;50.932;6.934;2022-07-03T08:11:21;2.80;;;2.10;;
12812;SDS011;6471;50.932;6.934;2022-07-03T08:13:47;3.00;;;2.33;;
12812;SDS011;6471;50.932;6.934;2022-07-03T08:16:13;4.67;;;2.20;;
12812;SDS011;6471;50.932;6.934;2022-07-03T08:18:39;4.23;;;2.83;;
12812;SDS011;6471;50.932;6.934;2022-07-03T08:21:05;3.60;;;1.80;;
12812;SDS011;6471;50.932;6.934;2022-07-03T08:23:31;2.78;;;2.05;;
12812;SDS011;6471;50.932;6.934;2022-07-03T08:25:57;3.25;;;1.73;;
12812;SDS011;6471;50.932;6.934;2022-07-03T08:28:24;3.60;;;2.20;;
12812;SDS011;6471;50.932;6.934;2022-07-03T08:30:50;2.85;;;1.60;;
12812;SDS011;6471;50.932;6.934;2022-07-03T08:33:16;2.25;;;1.77;;
12812;SDS011;6471;50.932;6.934;2022-07-03T08:35:42;4.07;;;1.70;;
12812;SDS011;6471;50.932;6.934;2022-07-03T08:38:08;2.38;;;1.50;;
12812;SDS011;6471;50.932;6.934;2022-07-03T08:40:34;2.78;;;1.65;;
12812;SDS011;6471;50.932;6.934;2022-07-03T08:43:00;1.85;;;1.50;;
12812;SDS011;6471;50.932;6.934;2022-07-03T08:45:28;3.13;;;1.60;;
12812;SDS011;6471;50.932;6.934;2022-07-03T08:47:55;2.03;;;1.30;;
12812;SDS011;6471;50.932;6.934;2022-07-03T08:50:22;1.92;;;1.45;;
12812;SDS011;6471;50.932;6.934;2022-07-03T08:52:49;2.22;;;1.40;;
12812;SDS011;6471;50.932;6.934;2022-07-03T08:55:15;1.92;;;1.20;;
12812;SDS011;6471;50.932;6.934;2022-07-03T08:57:42;1.95;;;1.30;;
12812;SDS011;6471;50.932;6.934;2022-07-03T09:00:09;3.03;;;1.48;;
12812;SDS011;6471;50.932;6.934;2022-07-03T09:02:36;2.20;;;1.30;;
12812;SDS011;6471;50.932;6.934;2022-07-03T09:05:07;2.65;;;1.50;;
12812;SDS011;6471;50.932;6.934;2022-07-03T09:07:37;2.75;;;1.40;;
12812;SDS011;6471;50.932;6.934;2022-07-03T09:10:03;1.48;;;1.20;;
12812;SDS011;6471;50.932;6.934;2022-07-03T09:12:33;3.60;;;1.30;;
12812;SDS011;6471;50.932;6.934;2022-07-03T09:14:59;1.48;;;1.20;;
12812;SDS011;6471;50.932;6.934;2022-07-03T09:17:26;1.50;;;1.20;;
12812;SDS011;6471;50.932;6.934;2022-07-03T09:19:53;1.63;;;1.20;;
12812;SDS011;6471;50.932;6.934;2022-07-03T09:22:26;1.95;;;1.27;;
12812;SDS011;6471;50.932;6.934;2022-07-03T09:25:13;1.88;;;1.23;;
12812;SDS011;6471;50.932;6.934;2022-07-03T09:27:53;3.38;;;1.42;;
12812;SDS011;6471;50.932;6.934;2022-07-03T09:30:19;1.42;;;1.33;;
12812;SDS011;6471;50.932;6.934;2022-07-03T09:32:46;3.30;;;1.60;;
12812;SDS011;6471;50.932;6.934;2022-07-03T09:35:20;1.98;;;1.30;;
12812;SDS011;6471;50.932;6.934;2022-07-03T09:37:54;3.00;;;1.40;;
12812;SDS011;6471;50.932;6.934;2022-07-03T09:40:24;2.88;;;1.90;;
12812;SDS011;6471;50.932;6.934;2022-07-03T09:42:58;2.15;;;1.60;;
12812;SDS011;6471;50.932;6.934;2022-07-03T09:45:24;1.50;;;1.40;;
12812;SDS011;6471;50.932;6.934;2022-07-03T09:47:50;1.60;;;1.27;;
12812;SDS011;6471;50.932;6.934;2022-07-03T09:50:16;4.40;;;1.73;;
12812;SDS011;6471;50.932;6.934;2022-07-03T09:52:43;2.50;;;1.73;;
12812;SDS011;6471;50.932;6.934;2022-07-03T10:00:31;2.17;;;1.30;;
12812;SDS011;6471;50.932;6.934;2022-07-03T10:03:06;2.25;;;1.60;;
12812;SDS011;6471;50.932;6.934;2022-07-03T10:05:36;2.73;;;1.50;;
12812;SDS011;6471;50.932;6.934;2022-07-03T10:08:03;1.70;;;1.37;;
12812;SDS011;6471;50.932;6.934;2022-07-03T10:10:31;1.97;;;1.40;;
12812;SDS011;6471;50.932;6.934;2022-07-03T10:12:58;2.20;;;1.27;;
12812;SDS011;6471;50.932;6.934;2022-07-03T10:15:25;3.93;;;1.60;;
12812;SDS011;6471;50.932;6.934;2022-07-03T10:17:52;3.80;;;1.90;;
12812;SDS011;6471;50.932;6.934;2022-07-03T10:20:26;2.30;;;1.57;;
12812;SDS011;6471;50.932;6.934;2022-07-03T10:22:53;3.57;;;1.47;;
12812;SDS011;6471;50.932;6.934;2022-07-03T10:25:19;1.40;;;1.30;;
12812;SDS011;6471;50.932;6.934;2022-07-03T10:27:46;2.20;;;1.53;;
12812;SDS011;6471;50.932;6.934;2022-07-03T10:30:13;2.58;;;1.60;;
12812;SDS011;6471;50.932;6.934;2022-07-03T10:32:40;4.30;;;2.00;;
12812;SDS011;6471;50.932;6.934;2022-07-03T10:35:07;2.00;;;1.70;;
12812;SDS011;6471;50.932;6.934;2022-07-03T10:43:52;3.33;;;1.80;;
12812;SDS011;6471;50.932;6.934;2022-07-03T10:46:37;4.97;;;1.83;;
12812;SDS011;6471;50.932;6.934;2022-07-03T10:49:04;3.60;;;1.83;;
12812;SDS011;6471;50.932;6.934;2022-07-03T10:51:53;4.07;;;2.00;;
12812;SDS011;6471;50.932;6.934;2022-07-03T11:07:42;2.47;;;1.60;;
12812;SDS011;6471;50.932;6.934;2022-07-03T11:20:36;3.90;;;1.80;;
12812;SDS011;6471;50.932;6.934;2022-07-03T11:23:07;3.60;;;2.05;;
12812;SDS011;6471;50.932;6.934;2022-07-03T11:41:22;2.67;;;1.63;;
12812;SDS011;6471;50.932;6.934;2022-07-03T11:43:53;4.28;;;1.70;;
12812;SDS011;6471;50.932;6.934;2022-07-03T11:46:20;2.83;;;1.63;;
12812;SDS011;6471;50.932;6.934;2022-07-03T11:48:46;2.67;;;2.00;;
12812;SDS011;6471;50.932;6.934;2022-07-03T11:51:12;2.33;;;1.88;;
12812;SDS011;6471;50.932;6.934;2022-07-03T11:53:39;3.42;;;1.92;;
12812;SDS011;6471;50.932;6.934;2022-07-03T11:56:06;3.78;;;1.60;;
12812;SDS011;6471;50.932;6.934;2022-07-03T11:58:43;3.17;;;1.58;;
12812;SDS011;6471;50.932;6.934;2022-07-03T12:01:10;2.22;;;1.55;;
12812;SDS011;6471;50.932;6.934;2022-07-03T12:03:36;3.00;;;1.42;;
12812;SDS011;6471;50.932;6.934;2022-07-03T12:06:02;2.85;;;1.70;;
12812;SDS011;6471;50.932;6.934;2022-07-03T12:08:29;2.67;;;1.70;;
12812;SDS011;6471;50.932;6.934;2022-07-03T12:10:57;3.05;;;1.70;;
12812;SDS011;6471;50.932;6.934;2022-07-03T12:13:23;2.95;;;1.60;;
12812;SDS011;6471;50.932;6.934;2022-07-03T12:15:50;1.70;;;1.30;;
12812;SDS011;6471;50.932;6.934;2022-07-03T12:18:16;2.65;;;1.80;;
12812;SDS011;6471;50.932;6.934;2022-07-03T12:20:43;2.45;;;1.63;;
12812;SDS011;6471;50.932;6.934;2022-07-03T12:23:09;1.70;;;1.45;;
12812;SDS011;6471;50.932;6.934;2022-07-03T12:25:39;2.55;;;1.40;;
12812;SDS011;6471;50.932;6.934;2022-07-03T12:28:09;3.35;;;1.70;;
12812;SDS011;6471;50.932;6.934;2022-07-03T12:30:35;2.75;;;1.55;;
12812;SDS011;6471;50.932;6.934;2022-07-03T12:33:02;3.42;;;1.70;;
12812;SDS011;6471;50.932;6.934;2022-07-03T12:35:28;3.05;;;1.50;;
12812;SDS011;6471;50.932;6.934;2022-07-03T12:37:54;3.65;;;1.60;;
12812;SDS011;6471;50.932;6.934;2022-07-03T12:40:21;3.30;;;1.50;;
12812;SDS011;6471;50.932;6.934;2022-07-03T12:42:47;1.90;;;1.50;;
12812;SDS011;6471;50.932;6.934;2022-07-03T12:45:24;2.17;;;1.60;;
12812;SDS011;6471;50.932;6.934;2022-07-03T12:48:00;2.53;;;1.80;;
12812;SDS011;6471;50.932;6.934;2022-07-03T12:50:26;2.30;;;1.45;;
12812;SDS011;6471;50.932;6.934;2022-07-03T12:52:56;2.15;;;1.48;;
12812;SDS011;6471;50.932;6.934;2022-07-03T12:55:26;1.75;;;1.30;;
12812;SDS011;6471;50.932;6.934;2022-07-03T13:00:57;3.83;;;1.52;;
12812;SDS011;6471;50.932;6.934;2022-07-03T13:03:30;2.22;;;1.60;;
12812;SDS011;6471;50.932;6.934;2022-07-03T13:05:56;2.42;;;1.50;;
12812;SDS011;6471;50.932;6.934;2022-07-03T13:08:22;4.78;;;1.45;;
12812;SDS011;6471;50.932;6.934;2022-07-03T13:10:56;2.33;;;1.58;;
12812;SDS011;6471;50.932;6.934;2022-07-03T13:13:22;3.95;;;1.80;;
12812;SDS011;6471;50.932;6.934;2022-07-03T13:15:48;2.30;;;1.50;;
12812;SDS011;6471;50.932;6.934;2022-07-03T13:18:14;1.77;;;1.35;;
12812;SDS011;6471;50.932;6.934;2022-07-03T13:20:40;2.72;;;1.50;;
12812;SDS011;6471;50.932;6.934;2022-07-03T13:23:06;2.45;;;1.50;;
12812;SDS011;6471;50.932;6.934;2022-07-03T13:25:34;5.28;;;1.50;;
12812;SDS011;6471;50.932;6.934;2022-07-03T13:30:30;4.88;;;1.58;;
12812;SDS011;6471;50.932;6.934;2022-07-03T13:32:56;2.00;;;1.40;;
12812;SDS011;6471;50.932;6.934;2022-07-03T13:35:22;1.95;;;1.50;;
12812;SDS011;6471;50.932;6.934;2022-07-03T13:37:48;1.73;;;1.30;;
12812;SDS011;6471;50.932;6.934;2022-07-03T13:40:15;2.35;;;1.40;;
12812;SDS011;6471;50.932;6.934;2022-07-03T13:42:41;2.47;;;1.50;;
12812;SDS011;6471;50.932;6.934;2022-07-03T13:45:07;2.35;;;1.60;;
12812;SDS011;6471;50.932;6.934;2022-07-03T13:47:33;5.32;;;1.55;;
12812;SDS011;6471;50.932;6.934;2022-07-03T13:50:00;3.92;;;1.70;;
12812;SDS011;6471;50.932;6.934;2022-07-03T13:52:26;2.85;;;1.70;;
12812;SDS011;6471;50.932;6.934;2022-07-03T13:54:52;2.50;;;1.40;;
12812;SDS011;6471;50.932;6.934;2022-07-03T13:57:18;2.58;;;1.42;;
12812;SDS011;6471;50.932;6.934;2022-07-03T13:59:44;1.65;;;1.27;;
12812;SDS011;6471;50.932;6.934;2022-07-03T14:02:10;4.82;;;1.65;;
12812;SDS011;6471;50.932;6.934;2022-07-03T14:04:36;1.80;;;1.48;;
12812;SDS011;6471;50.932;6.934;2022-07-03T14:07:03;2.22;;;1.35;;
12812;SDS011;6471;50.932;6.934;2022-07-03T14:09:29;3.13;;;1.40;;
12812;SDS011;6471;50.932;6.934;2022-07-03T14:11:55;2.58;;;1.40;;
12812;SDS011;6471;50.932;6.934;2022-07-03T14:14:21;4.00;;;1.50;;
12812;SDS011;6471;50.932;6.934;2022-07-03T14:16:48;2.13;;;1.20;;
12812;SDS011;6471;50.932;6.934;2022-07-03T14:19:15;3.10;;;1.40;;
12812;SDS011;6471;50.932;6.934;2022-07-03T14:21:42;1.70;;;1.23;;
12812;SDS011;6471;50.932;6.934;2022-07-03T14:24:08;1.92;;;1.17;;
12812;SDS011;6471;50.932;6.934;2022-07-03T14:26:43;3.67;;;1.40;;
12812;SDS011;6471;50.932;6.934;2022-07-03T14:29:28;2.83;;;1.40;;
12812;SDS011;6471;50.932;6.934;2022-07-03T14:32:12;4.32;;;1.60;;
12812;SDS011;6471;50.932;6.934;2022-07-03T14:34:53;2.60;;;1.38;;
12812;SDS011;6471;50.932;6.934;2022-07-03T14:37:19;1.83;;;1.33;;
12812;SDS011;6471;50.932;6.934;2022-07-03T14:39:46;4.53;;;1.80;;
12812;SDS011;6471;50.932;6.934;2022-07-03T14:42:12;3.83;;;1.80;;
12812;SDS011;6471;50.932;6.934;2022-07-03T14:44:38;2.30;;;1.70;;
12812;SDS011;6471;50.932;6.934;2022-07-03T14:47:04;3.95;;;1.63;;
12812;SDS011;6471;50.932;6.934;2022-07-03T14:49:30;3.10;;;1.20;;
12812;SDS011;6471;50.932;6.934;2022-07-03T14:52:00;3.40;;;1.58;;
12812;SDS011;6471;50.932;6.934;2022-07-03T14:54:26;4.03;;;1.60;;
12812;SDS011;6471;50.932;6.934;2022-07-03T14:56:53;2.78;;;1.50;;
12812;SDS011;6471;50.932;6.934;2022-07-03T14:59:28;4.68;;;1.50;;
12812;SDS011;6471;50.932;6.934;2022-07-03T15:01:57;3.10;;;1.60;;
12812;SDS011;6471;50.932;6.934;2022-07-03T15:07:13;3.15;;;1.40;;
12812;SDS011;6471;50.932;6.934;2022-07-03T15:09:41;2.05;;;1.23;;
12812;SDS011;6471;50.932;6.934;2022-07-03T15:12:12;3.40;;;1.40;;
12812;SDS011;6471;50.932;6.934;2022-07-03T15:14:54;3.28;;;1.35;;
12812;SDS011;6471;50.932;6.934;2022-07-03T15:17:20;1.95;;;1.50;;
12812;SDS011;6471;50.932;6.934;2022-07-03T15:19:47;1.45;;;1.20;;
12812;SDS011;6471;50.932;6.934;2022-07-03T15:22:14;4.82;;;1.30;;
12812;SDS011;6471;50.932;6.934;2022-07-03T15:24:40;1.73;;;1.38;;
12812;SDS011;6471;50.932;6.934;2022-07-03T15:27:07;3.40;;;1.57;;
12812;SDS011;6471;50.932;6.934;2022-07-03T15:29:36;2.25;;;1.30;;
12812;SDS011;6471;50.932;6.934;2022-07-03T15:32:02;1.53;;;1.20;;
12812;SDS011;6471;50.932;6.934;2022-07-03T15:34:29;2.28;;;1.30;;
12812;SDS011;6471;50.932;6.934;2022-07-03T15:37:03;3.10;;;1.50;;
12812;SDS011;6471;50.932;6.934;2022-07-03T15:39:34;1.57;;;1.40;;
12812;SDS011;6471;50.932;6.934;2022-07-03T15:42:20;2.10;;;1.25;;
12812;SDS011;6471;50.932;6.934;2022-07-03T15:44:53;3.77;;;1.53;;
12812;SDS011;6471;50.932;6.934;2022-07-03T15:49:47;2.90;;;1.55;;
12812;SDS011;6471;50.932;6.934;2022-07-03T15:52:17;1.77;;;1.40;;
12812;SDS011;6471;50.932;6.934;2022-07-03T15:54:55;3.07;;;1.50;;
12812;SDS011;6471;50.932;6.934;2022-07-03T16:00:03;3.03;;;1.50;;
12812;SDS011;6471;50.932;6.934;2022-07-03T16:07:36;3.17;;;1.53;;
12812;SDS011;6471;50.932;6.934;2022-07-03T16:10:04;3.40;;;1.50;;
12812;SDS011;6471;50.932;6.934;2022-07-03T16:12:30;2.00;;;1.77;;
12812;SDS011;6471;50.932;6.934;2022-07-03T16:14:57;2.50;;;1.37;;
12812;SDS011;6471;50.932;6.934;2022-07-03T16:17:23;2.80;;;1.33;;
12812;SDS011;6471;50.932;6.934;2022-07-03T16:19:49;3.47;;;1.50;;
12812;SDS011;6471;50.932;6.934;2022-07-03T16:22:16;3.70;;;1.73;;
12812;SDS011;6471;50.932;6.934;2022-07-03T16:24:43;4.50;;;1.43;;
12812;SDS011;6471;50.932;6.934;2022-07-03T16:27:11;3.33;;;1.70;;
12812;SDS011;6471;50.932;6.934;2022-07-03T16:29:38;3.40;;;1.77;;
12812;SDS011;6471;50.932;6.934;2022-07-03T16:32:04;4.97;;;1.60;;
12812;SDS011;6471;50.932;6.934;2022-07-03T16:34:38;4.53;;;1.90;;
12812;SDS011;6471;50.932;6.934;2022-07-03T16:37:06;2.83;;;1.50;;
12812;SDS011;6471;50.932;6.934;2022-07-03T16:39:33;5.07;;;1.73;;
12812;SDS011;6471;50.932;6.934;2022-07-03T16:42:00;3.73;;;1.70;;
12812;SDS011;6471;50.932;6.934;2022-07-03T16:44:27;3.50;;;1.70;;
12812;SDS011;6471;50.932;6.934;2022-07-03T16:46:54;2.77;;;1.70;;
12812;SDS011;6471;50.932;6.934;2022-07-03T16:49:22;4.87;;;1.70;;
12812;SDS011;6471;50.932;6.934;2022-07-03T16:51:55;3.93;;;1.60;;
12812;SDS011;6471;50.932;6.934;2022-07-03T16:54:22;3.23;;;1.73;;
12812;SDS011;6471;50.932;6.934;2022-07-03T16:56:48;1.97;;;1.30;;
12812;SDS011;6471;50.932;6.934;2022-07-03T16:59:15;1.80;;;1.47;;
12812;SDS011;6471;50.932;6.934;2022-07-03T17:01:42;1.80;;;1.27;;
12812;SDS011;6471;50.932;6.934;2022-07-03T17:04:09;3.83;;;1.50;;
12812;SDS011;6471;50.932;6.934;2022-07-03T17:06:35;3.23;;;1.50;;
12812;SDS011;6471;50.932;6.934;2022-07-03T17:09:02;2.50;;;1.63;;
12812;SDS011;6471;50.932;6.934;2022-07-03T17:11:28;3.60;;;1.30;;
12812;SDS011;6471;50.932;6.934;2022-07-03T17:13:54;2.90;;;1.60;;
12812;SDS011;6471;50.932;6.934;2022-07-03T17:16:21;3.80;;;1.55;;
12812;SDS011;6471;50.932;6.934;2022-07-03T17:18:49;1.70;;;1.20;;
12812;SDS011;6471;50.932;6.934;2022-07-03T17:21:16;4.00;;;1.30;;
12812;SDS011;6471;50.932;6.934;2022-07-03T17:23:44;2.60;;;1.47;;
12812;SDS011;6471;50.932;6.934;2022-07-03T17:26:12;3.93;;;1.57;;
12812;SDS011;6471;50.932;6.934;2022-07-03T17:28:49;1.63;;;1.33;;
12812;SDS011;6471;50.932;6.934;2022-07-03T17:31:19;3.53;;;1.60;;
12812;SDS011;6471;50.932;6.934;2022-07-03T17:33:50;2.00;;;1.30;;
12812;SDS011;6471;50.932;6.934;2022-07-03T17:36:20;3.77;;;1.40;;
12812;SDS011;6471;50.932;6.934;2022-07-03T17:38:47;2.53;;;1.30;;
12812;SDS011;6471;50.932;6.934;2022-07-03T17:41:15;4.87;;;1.50;;
12812;SDS011;6471;50.932;6.934;2022-07-03T17:43:42;1.70;;;1.10;;
12812;SDS011;6471;50.932;6.934;2022-07-03T17:46:09;3.43;;;1.37;;
12812;SDS011;6471;50.932;6.934;2022-07-03T17:48:37;2.97;;;1.23;;
12812;SDS011;6471;50.932;6.934;2022-07-03T17:51:04;4.47;;;1.80;;
12812;SDS011;6471;50.932;6.934;2022-07-03T17:53:31;2.83;;;1.33;;
12812;SDS011;6471;50.932;6.934;2022-07-03T17:55:57;2.50;;;1.30;;
12812;SDS011;6471;50.932;6.934;2022-07-03T17:58:24;2.23;;;1.30;;
12812;SDS011;6471;50.932;6.934;2022-07-03T18:00:50;2.50;;;1.43;;
12812;SDS011;6471;50.932;6.934;2022-07-03T18:03:16;3.50;;;1.47;;
12812;SDS011;6471;50.932;6.934;2022-07-03T18:05:44;1.30;;;1.20;;
12812;SDS011;6471;50.932;6.934;2022-07-03T18:08:11;3.73;;;1.40;;
12812;SDS011;6471;50.932;6.934;2022-07-03T18:11:13;1.77;;;1.17;;
12812;SDS011;6471;50.932;6.934;2022-07-03T18:15:58;3.10;;;1.20;;
12812;SDS011;6471;50.932;6.934;2022-07-03T18:18:34;2.33;;;1.10;;
12812;SDS011;6471;50.932;6.934;2022-07-03T18:21:00;2.47;;;1.27;;
12812;SDS011;6471;50.932;6.934;2022-07-03T18:23:34;1.87;;;1.10;;
12812;SDS011;6471;50.932;6.934;2022-07-03T18:26:01;1.30;;;1.00;;
12812;SDS011;6471;50.932;6.934;2022-07-03T18:28:27;2.40;;;1.30;;
12812;SDS011;6471;50.932;6.934;2022-07-03T18:30:54;4.03;;;1.40;;
12812;SDS011;6471;50.932;6.934;2022-07-03T18:33:20;2.07;;;1.23;;
12812;SDS011;6471;50.932;6.934;2022-07-03T18:35:48;2.57;;;1.27;;
12812;SDS011;6471;50.932;6.934;2022-07-03T18:38:15;2.10;;;1.07;;
12812;SDS011;6471;50.932;6.934;2022-07-03T18:40:41;1.43;;;1.30;;
12812;SDS011;6471;50.932;6.934;2022-07-03T18:43:09;1.50;;;0.97;;
12812;SDS011;6471;50.932;6.934;2022-07-03T18:45:40;2.90;;;1.10;;
12812;SDS011;6471;50.932;6.934;2022-07-03T18:48:07;3.03;;;1.30;;
12812;SDS011;6471;50.932;6.934;2022-07-03T18:50:34;2.40;;;1.30;;
12812;SDS011;6471;50.932;6.934;2022-07-03T18:55:44;2.33;;;1.20;;
12812;SDS011;6471;50.932;6.934;2022-07-03T18:58:24;2.27;;;1.20;;
12812;SDS011;6471;50.932;6.934;2022-07-03T19:00:54;2.70;;;1.30;;
12812;SDS011;6471;50.932;6.934;2022-07-03T19:03:25;2.47;;;1.23;;
12812;SDS011;6471;50.932;6.934;2022-07-03T19:05:58;2.67;;;1.30;;
12812;SDS011;6471;50.932;6.934;2022-07-03T19:10:56;3.47;;;1.57;;
12812;SDS011;6471;50.932;6.934;2022-07-03T19:13:24;2.83;;;1.57;;